createdAt,value
2019-03-28T00:01:05.558Z,9.80
2019-03-28T00:03:36.895Z,9.70
2019-03-28T00:06:07.790Z,9.80
2019-03-28T00:08:38.696Z,9.80
2019-03-28T00:11:10.290Z,9.70
2019-03-28T00:13:41.294Z,9.80
2019-03-28T00:16:12.193Z,9.70
2019-03-28T00:18:43.197Z,9.70
2019-03-28T00:21:14.156Z,9.70
2019-03-28T00:24:02.920Z,9.70
2019-03-28T00:26:33.810Z,9.70
2019-03-28T00:29:04.725Z,9.70
2019-03-28T00:31:35.613Z,9.70
2019-03-28T00:34:06.625Z,9.70
2019-03-28T00:36:37.517Z,9.70
2019-03-28T00:39:08.783Z,9.70
2019-03-28T00:41:39.674Z,9.70
2019-03-28T00:44:10.589Z,9.70
2019-03-28T00:46:42.549Z,9.70
2019-03-28T00:49:13.798Z,9.70
2019-03-28T00:51:44.678Z,9.70
2019-03-28T00:54:15.614Z,9.80
2019-03-28T00:56:47.620Z,9.70
2019-03-28T00:59:18.725Z,9.70
2019-03-28T01:01:49.613Z,9.80
2019-03-28T01:04:20.541Z,9.80
2019-03-28T01:06:51.429Z,9.80
2019-03-28T01:09:22.338Z,9.80
2019-03-28T01:11:53.234Z,9.70
2019-03-28T01:14:24.149Z,9.80
2019-03-28T01:16:56.121Z,9.80
2019-03-28T01:19:28.212Z,9.70
2019-03-28T01:21:59.093Z,9.70
2019-03-28T01:24:30.513Z,9.70
2019-03-28T01:27:01.523Z,9.70
2019-03-28T01:29:32.489Z,9.70
2019-03-28T01:32:03.386Z,9.70
2019-03-28T01:34:34.301Z,9.70
2019-03-28T01:37:05.180Z,9.70
2019-03-28T01:39:36.097Z,9.70
2019-03-28T01:42:06.981Z,9.70
2019-03-28T01:44:37.985Z,9.70
2019-03-28T01:47:08.878Z,9.60
2019-03-28T01:49:39.781Z,9.70
2019-03-28T01:52:10.672Z,9.70
2019-03-28T01:54:41.677Z,9.70
2019-03-28T01:57:12.962Z,9.70
2019-03-28T01:59:44.171Z,9.70
2019-03-28T02:02:15.089Z,9.70
2019-03-28T02:04:46.021Z,9.70
2019-03-28T02:07:16.912Z,9.70
2019-03-28T02:09:47.832Z,9.70
2019-03-28T02:12:18.721Z,9.70
2019-03-28T02:14:49.732Z,9.70
2019-03-28T02:17:20.622Z,9.70
2019-03-28T02:19:51.589Z,9.70
2019-03-28T02:22:22.485Z,9.70
2019-03-28T02:24:53.441Z,9.70
2019-03-28T02:27:24.771Z,9.70
2019-03-28T02:29:55.950Z,9.70
2019-03-28T02:32:26.846Z,9.70
2019-03-28T02:34:57.766Z,9.60
2019-03-28T02:37:28.661Z,9.70
2019-03-28T02:39:59.567Z,9.70
2019-03-28T02:42:30.453Z,9.70
2019-03-28T02:45:01.359Z,9.70
2019-03-28T02:47:32.257Z,9.70
2019-03-28T02:50:04.719Z,9.60
2019-03-28T02:52:35.627Z,9.70
2019-03-28T02:55:06.854Z,9.60
2019-03-28T02:57:41.819Z,9.60
2019-03-28T03:00:11.482Z,9.60
2019-03-28T03:02:42.372Z,9.60
2019-03-28T03:05:13.301Z,9.60
2019-03-28T03:07:44.200Z,9.60
2019-03-28T03:10:15.496Z,9.60
2019-03-28T03:12:46.376Z,9.60
2019-03-28T03:15:17.342Z,9.60
2019-03-28T03:17:48.230Z,9.60
2019-03-28T03:20:19.162Z,9.70
2019-03-28T03:22:50.051Z,9.60
2019-03-28T03:25:21.019Z,9.60
2019-03-28T03:27:58.315Z,9.70
2019-03-28T03:30:24.461Z,9.70
2019-03-28T03:32:55.358Z,9.70
2019-03-28T03:35:26.290Z,9.70
2019-03-28T03:37:57.173Z,9.70
2019-03-28T03:40:28.109Z,9.60
2019-03-28T03:42:59.003Z,9.60
2019-03-28T03:45:29.943Z,9.60
2019-03-28T03:48:00.833Z,9.60
2019-03-28T03:50:33.083Z,9.60
2019-03-28T03:53:03.909Z,9.60
2019-03-28T03:55:34.930Z,9.60
2019-03-28T03:58:15.235Z,9.60
2019-03-28T04:00:38.550Z,9.60
2019-03-28T04:03:09.446Z,9.60
2019-03-28T04:05:40.473Z,9.60
2019-03-28T04:08:11.373Z,9.60
2019-03-28T04:10:42.630Z,9.60
2019-03-28T04:13:14.587Z,9.60
2019-03-28T04:15:45.503Z,9.60
2019-03-28T04:18:16.402Z,9.60
2019-03-28T04:20:47.407Z,9.60
2019-03-28T04:23:18.298Z,9.60
2019-03-28T04:25:49.722Z,9.60
2019-03-28T04:28:31.880Z,9.60
2019-03-28T04:30:53.162Z,9.50
2019-03-28T04:33:24.053Z,9.50
2019-03-28T04:35:55.052Z,9.50
2019-03-28T04:38:25.933Z,9.50
2019-03-28T04:40:56.931Z,9.50
2019-03-28T04:43:27.881Z,9.50
2019-03-28T04:45:58.888Z,9.50
2019-03-28T04:48:30.829Z,9.60
2019-03-28T04:51:01.745Z,9.60
2019-03-28T04:53:32.641Z,9.50
2019-03-28T04:56:04.193Z,9.60
2019-03-28T04:58:44.347Z,9.50
2019-03-28T05:01:07.637Z,9.50
2019-03-28T05:03:38.515Z,9.50
2019-03-28T05:06:09.427Z,9.50
2019-03-28T05:08:40.310Z,9.50
2019-03-28T05:11:11.311Z,9.50
2019-03-28T05:13:42.212Z,9.50
2019-03-28T05:16:13.135Z,9.60
2019-03-28T05:18:44.023Z,9.60
2019-03-28T05:21:14.938Z,9.60
2019-03-28T05:23:45.831Z,9.60
2019-03-28T05:26:16.861Z,9.60
2019-03-28T05:28:57.585Z,9.50
2019-03-28T05:31:21.221Z,9.60
2019-03-28T05:33:52.105Z,9.60
2019-03-28T05:36:23.401Z,9.60
2019-03-28T05:38:54.350Z,9.50
2019-03-28T05:41:26.182Z,9.60
2019-03-28T05:43:57.087Z,9.60
2019-03-28T05:46:28.039Z,9.60
2019-03-28T05:48:58.921Z,9.60
2019-03-28T05:51:29.866Z,9.60
2019-03-28T05:54:00.758Z,9.70
2019-03-28T05:56:31.765Z,9.70
2019-03-28T05:59:10.736Z,9.60
2019-03-28T06:01:35.201Z,9.60
2019-03-28T06:04:06.084Z,9.70
2019-03-28T06:06:37.001Z,9.70
2019-03-28T06:09:08.577Z,9.70
2019-03-28T06:11:39.517Z,9.70
2019-03-28T06:14:10.397Z,9.70
2019-03-28T06:16:41.322Z,9.70
2019-03-28T06:19:12.563Z,9.70
2019-03-28T06:21:43.546Z,9.70
2019-03-28T06:24:14.441Z,9.70
2019-03-28T06:26:45.349Z,9.70
2019-03-28T06:29:23.671Z,9.70
2019-03-28T06:31:55.191Z,9.70
2019-03-28T06:34:21.298Z,9.70
2019-03-28T06:36:52.217Z,9.70
2019-03-28T06:39:23.101Z,9.70
2019-03-28T06:41:54.050Z,9.70
2019-03-28T06:44:24.941Z,9.70
2019-03-28T06:46:55.944Z,9.80
2019-03-28T06:49:26.821Z,9.80
2019-03-28T06:51:57.757Z,9.80
2019-03-28T06:54:28.649Z,9.80
2019-03-28T06:56:59.609Z,9.80
2019-03-28T06:59:37.180Z,9.80
2019-03-28T07:02:03.128Z,9.80
2019-03-28T07:04:35.081Z,9.90
2019-03-28T07:07:06.638Z,9.90
2019-03-28T07:09:37.598Z,9.90
2019-03-28T07:12:08.509Z,9.90
2019-03-28T07:14:39.409Z,10.00
2019-03-28T07:17:10.337Z,9.90
2019-03-28T07:19:41.221Z,10.00
2019-03-28T07:22:12.374Z,10.00
2019-03-28T07:24:43.274Z,10.00
2019-03-28T07:27:14.197Z,10.00
2019-03-28T07:29:50.727Z,10.10
2019-03-28T07:32:17.742Z,10.10
2019-03-28T07:34:48.638Z,10.10
2019-03-28T07:37:19.582Z,10.10
2019-03-28T07:39:50.481Z,10.10
2019-03-28T07:42:21.758Z,10.20
2019-03-28T07:44:53.168Z,10.20
2019-03-28T07:47:24.392Z,10.30
2019-03-28T07:49:55.290Z,10.30
2019-03-28T07:52:27.534Z,10.30
2019-03-28T07:54:58.565Z,10.20
2019-03-28T07:57:29.510Z,10.30
2019-03-28T08:00:04.444Z,10.40
2019-03-28T08:02:34.279Z,10.40
2019-03-28T08:05:06.026Z,10.50
2019-03-28T08:07:44.954Z,10.50
2019-03-28T08:10:10.400Z,10.50
2019-03-28T08:12:41.417Z,10.50
2019-03-28T08:15:12.304Z,10.50
2019-03-28T08:17:43.341Z,10.50
2019-03-28T08:20:16.098Z,10.50
2019-03-28T08:22:47.173Z,10.50
2019-03-28T08:25:18.079Z,10.60
2019-03-28T08:27:49.425Z,10.60
2019-03-28T08:30:28.779Z,10.60
2019-03-28T08:33:00.462Z,10.50
2019-03-28T08:35:32.429Z,10.60
2019-03-28T08:38:03.599Z,10.60
2019-03-28T08:40:39.697Z,10.60
2019-03-28T08:43:09.669Z,10.60
2019-03-28T08:45:40.565Z,10.70
2019-03-28T08:48:11.501Z,10.70
2019-03-28T08:50:42.398Z,10.80
2019-03-28T08:53:13.582Z,10.80
2019-03-28T08:55:44.472Z,10.80
2019-03-28T08:58:15.462Z,10.90
2019-03-28T09:01:06.059Z,10.80
2019-03-28T09:03:37.026Z,10.80
2019-03-28T09:06:07.925Z,10.90
2019-03-28T09:08:38.894Z,10.80
2019-03-28T09:11:09.782Z,10.80
2019-03-28T09:13:40.790Z,10.80
2019-03-28T09:16:11.685Z,10.80
2019-03-28T09:18:42.693Z,10.80
2019-03-28T09:21:13.605Z,10.80
2019-03-28T09:23:44.562Z,10.80
2019-03-28T09:26:15.450Z,10.90
2019-03-28T09:28:46.742Z,10.90
2019-03-28T09:31:20.274Z,10.90
2019-03-28T09:33:50.193Z,10.90
2019-03-28T09:36:21.378Z,10.90
2019-03-28T09:38:53.694Z,10.90
2019-03-28T09:41:24.569Z,10.90
2019-03-28T09:43:56.083Z,11.00
2019-03-28T09:46:27.048Z,11.00
2019-03-28T09:48:57.993Z,11.00
2019-03-28T09:51:28.904Z,11.10
2019-03-28T09:54:00.292Z,11.10
2019-03-28T09:56:31.236Z,11.10
2019-03-28T09:59:02.249Z,11.10
2019-03-28T10:01:33.156Z,11.10
2019-03-28T10:04:06.631Z,11.20
2019-03-28T10:06:37.662Z,11.20
2019-03-28T10:09:09.137Z,11.30
2019-03-28T10:11:40.029Z,11.30
2019-03-28T10:14:11.121Z,11.30
2019-03-28T10:16:42.042Z,11.30
2019-03-28T10:19:12.981Z,11.30
2019-03-28T10:21:44.839Z,11.30
2019-03-28T10:24:15.843Z,11.30
2019-03-28T10:26:46.739Z,11.40
2019-03-28T10:29:18.738Z,11.40
2019-03-28T10:31:50.025Z,11.30
2019-03-28T10:34:21.555Z,11.30
2019-03-28T10:36:52.443Z,11.30
2019-03-28T10:39:23.791Z,11.40
2019-03-28T10:41:54.852Z,11.40
2019-03-28T10:44:26.113Z,11.40
2019-03-28T10:46:57.013Z,11.40
2019-03-28T10:49:27.941Z,11.40
2019-03-28T10:51:59.194Z,11.50
2019-03-28T10:54:30.206Z,11.50
2019-03-28T10:57:13.040Z,11.50
2019-03-28T10:59:33.742Z,11.50
2019-03-28T11:02:05.595Z,11.50
2019-03-28T11:04:36.525Z,11.50
2019-03-28T11:07:07.439Z,11.50
2019-03-28T11:09:38.387Z,11.50
2019-03-28T11:12:09.285Z,11.60
2019-03-28T11:14:41.358Z,11.50
2019-03-28T11:17:12.258Z,11.50
2019-03-28T11:19:43.756Z,11.50
2019-03-28T11:22:14.658Z,11.50
2019-03-28T11:24:46.426Z,11.60
2019-03-28T11:27:17.610Z,11.60
2019-03-28T11:29:48.530Z,11.70
2019-03-28T11:32:19.418Z,11.70
2019-03-28T11:34:50.433Z,11.70
2019-03-28T11:37:26.278Z,11.70
2019-03-28T11:39:53.966Z,11.70
2019-03-28T11:42:24.849Z,11.70
2019-03-28T11:44:56.103Z,11.70
2019-03-28T11:47:26.990Z,11.80
2019-03-28T11:49:57.994Z,11.70
2019-03-28T11:52:28.882Z,11.60
2019-03-28T11:55:00.885Z,11.60
2019-03-28T11:57:31.773Z,11.60
2019-03-28T12:00:02.761Z,11.60
2019-03-28T12:02:33.924Z,11.60
2019-03-28T12:05:05.481Z,11.60
2019-03-28T12:07:36.397Z,11.60
2019-03-28T12:10:09.251Z,11.60
2019-03-28T12:12:40.140Z,11.60
2019-03-28T12:15:11.844Z,11.60
2019-03-28T12:17:42.718Z,11.60
2019-03-28T12:20:13.830Z,11.60
2019-03-28T12:22:44.745Z,11.60
2019-03-28T12:25:15.823Z,11.60
2019-03-28T12:27:46.705Z,11.50
2019-03-28T12:30:20.270Z,11.40
2019-03-28T12:32:51.165Z,11.50
2019-03-28T12:35:22.079Z,11.50
2019-03-28T12:37:52.970Z,11.50
2019-03-28T12:40:23.923Z,11.50
2019-03-28T12:42:54.922Z,11.60
2019-03-28T13:14:31.319Z,14.00
2019-03-28T13:17:02.546Z,13.40
2019-03-28T13:19:33.495Z,13.10
2019-03-28T13:22:05.472Z,12.80
2019-03-28T13:24:36.410Z,12.60
2019-03-28T13:27:07.335Z,12.60
2019-03-28T13:29:38.668Z,12.50
2019-03-28T13:32:09.581Z,12.50
2019-03-28T13:34:40.509Z,12.50
2019-03-28T13:37:11.438Z,12.50
2019-03-28T13:39:42.353Z,12.50
2019-03-28T13:42:14.303Z,12.40
2019-03-28T13:44:45.200Z,12.40
2019-03-28T13:47:16.095Z,12.30
2019-03-28T13:49:47.140Z,12.30
2019-03-28T13:52:18.048Z,12.30
2019-03-28T13:54:49.461Z,12.30
2019-03-28T13:57:21.672Z,12.30
2019-03-28T13:59:53.364Z,12.30
2019-03-28T14:02:24.274Z,12.20
2019-03-28T14:04:55.230Z,12.20
2019-03-28T14:07:26.134Z,12.20
2019-03-28T14:09:57.146Z,12.20
2019-03-28T14:12:28.072Z,12.10
2019-03-28T14:14:59.066Z,12.10
2019-03-28T14:17:29.998Z,12.20
2019-03-28T14:20:00.951Z,12.20
2019-03-28T14:22:31.856Z,12.20
2019-03-28T14:25:02.797Z,12.10
2019-03-28T14:27:34.792Z,12.20
2019-03-28T14:30:09.453Z,12.20
2019-03-28T14:32:52.184Z,12.20
2019-03-28T14:35:12.035Z,12.20
2019-03-28T14:37:43.312Z,12.10
2019-03-28T14:40:14.553Z,12.10
2019-03-28T14:42:45.466Z,12.10
2019-03-28T14:45:16.360Z,12.20
2019-03-28T14:47:47.331Z,12.10
2019-03-28T14:50:22.522Z,12.20
2019-03-28T14:52:53.451Z,12.10
2019-03-28T14:55:24.327Z,12.20
2019-03-28T14:57:55.274Z,12.20
2019-03-28T15:00:47.000Z,12.10
2019-03-28T15:03:26.117Z,12.20
2019-03-28T15:05:51.258Z,12.20
2019-03-28T15:08:25.701Z,12.20
2019-03-28T15:10:56.619Z,12.20
2019-03-28T15:13:27.581Z,12.20
2019-03-28T15:15:58.490Z,12.20
2019-03-28T15:18:30.702Z,12.20
2019-03-28T15:21:01.607Z,12.20
2019-03-28T15:23:32.857Z,12.20
2019-03-28T15:26:03.801Z,12.10
2019-03-28T15:28:35.270Z,12.10
2019-03-28T15:31:06.203Z,12.00
2019-03-28T15:33:39.749Z,12.00
2019-03-28T15:36:09.769Z,11.90
2019-03-28T15:38:40.808Z,11.90
2019-03-28T15:41:11.778Z,11.90
2019-03-28T15:43:42.706Z,11.80
2019-03-28T15:46:13.597Z,11.80
2019-03-28T15:48:44.889Z,11.80
2019-03-28T15:51:15.809Z,11.80
2019-03-28T15:53:46.764Z,11.70
2019-03-28T15:56:17.848Z,11.60
2019-03-28T15:58:49.717Z,11.60
2019-03-28T16:01:20.606Z,11.70
2019-03-28T16:03:53.239Z,11.70
2019-03-28T16:06:24.162Z,11.70
2019-03-28T16:08:55.094Z,11.60
2019-03-28T16:11:25.994Z,11.70
2019-03-28T16:13:56.938Z,11.60
2019-03-28T16:16:28.382Z,11.70
2019-03-28T16:19:01.593Z,11.70
2019-03-28T16:21:32.281Z,11.60
2019-03-28T16:24:03.242Z,11.70
2019-03-28T16:26:34.152Z,11.60
2019-03-28T16:29:05.513Z,11.60
2019-03-28T16:31:36.461Z,11.70
2019-03-28T16:34:07.681Z,11.60
2019-03-28T16:36:38.622Z,11.60
2019-03-28T16:39:09.587Z,11.60
2019-03-28T16:41:42.093Z,11.50
2019-03-28T16:44:13.057Z,11.50
2019-03-28T16:46:45.031Z,11.60
2019-03-28T16:49:16.399Z,11.60
2019-03-28T16:51:47.365Z,11.60
2019-03-28T16:54:18.319Z,11.60
2019-03-28T16:56:49.279Z,11.50
2019-03-28T16:59:20.311Z,11.50
2019-03-28T17:01:51.211Z,11.60
2019-03-28T17:04:22.933Z,11.60
2019-03-28T17:06:55.242Z,11.60
2019-03-28T17:09:27.310Z,11.50
2019-03-28T17:11:58.276Z,11.50
2019-03-28T17:14:30.378Z,11.50
2019-03-28T17:17:01.270Z,11.50
2019-03-28T17:19:32.210Z,11.50
2019-03-28T17:22:03.446Z,11.50
2019-03-28T17:24:35.135Z,11.50
2019-03-28T17:27:06.061Z,11.50
2019-03-28T17:29:37.026Z,11.50
2019-03-28T17:32:08.207Z,11.50
2019-03-28T17:34:40.114Z,11.50
2019-03-28T17:37:11.011Z,11.50
2019-03-28T17:39:41.980Z,11.40
2019-03-28T17:42:13.953Z,11.50
2019-03-28T17:44:44.922Z,11.40
2019-03-28T17:47:15.834Z,11.40
2019-03-28T17:49:47.134Z,11.40
2019-03-28T17:52:18.030Z,11.40
2019-03-28T17:54:48.970Z,11.40
2019-03-28T17:57:19.881Z,11.30
2019-03-28T17:59:50.822Z,11.30
2019-03-28T18:02:40.501Z,11.30
2019-03-28T18:05:15.246Z,11.30
2019-03-28T18:07:44.090Z,11.30
2019-03-28T18:10:16.061Z,11.20
2019-03-28T18:12:48.353Z,11.20
2019-03-28T18:15:19.439Z,11.20
2019-03-28T18:17:51.022Z,11.20
2019-03-28T18:20:22.907Z,11.20
2019-03-28T18:22:53.829Z,11.20
2019-03-28T18:25:24.790Z,11.20
2019-03-28T18:27:55.706Z,11.20
2019-03-28T18:30:26.777Z,11.20
2019-03-28T18:32:57.698Z,11.10
2019-03-28T18:35:28.739Z,11.20
2019-03-28T18:37:59.665Z,11.10
2019-03-28T18:40:31.154Z,11.10
2019-03-28T18:43:02.069Z,11.10
2019-03-28T18:45:33.996Z,11.10
2019-03-28T18:48:05.011Z,11.10
2019-03-28T18:50:36.060Z,11.10
2019-03-28T18:53:06.946Z,11.10
2019-03-28T18:55:38.211Z,11.10
2019-03-28T18:58:09.129Z,11.00
2019-03-28T19:00:40.161Z,11.00
2019-03-28T19:03:11.060Z,11.00
2019-03-28T19:05:42.073Z,10.90
2019-03-28T19:08:12.977Z,10.90
2019-03-28T19:11:03.931Z,10.90
2019-03-28T19:13:34.993Z,10.90
2019-03-28T19:16:06.042Z,10.90
2019-03-28T19:18:36.942Z,10.80
2019-03-28T19:21:07.908Z,10.80
2019-03-28T19:23:38.842Z,10.90
2019-03-28T19:26:11.012Z,10.80
2019-03-28T19:28:42.175Z,10.80
2019-03-28T19:31:13.126Z,10.80
2019-03-28T19:33:44.042Z,10.80
2019-03-28T19:36:15.599Z,10.80
2019-03-28T19:38:47.105Z,10.80
2019-03-28T19:41:18.131Z,10.80
2019-03-28T19:43:49.843Z,10.70
2019-03-28T19:46:20.813Z,10.80
2019-03-28T19:48:51.746Z,10.80
2019-03-28T19:51:22.753Z,10.80
2019-03-28T19:53:53.658Z,10.70
2019-03-28T19:56:24.623Z,10.70
2019-03-28T19:58:57.356Z,10.70
2019-03-28T20:01:28.247Z,10.70
2019-03-28T20:03:59.162Z,10.70
2019-03-28T20:06:30.086Z,10.70
2019-03-28T20:09:00.990Z,10.70
2019-03-28T20:11:33.936Z,10.70
2019-03-28T20:14:06.441Z,10.70
2019-03-28T20:16:37.402Z,10.70
2019-03-28T20:19:08.365Z,10.70
2019-03-28T20:21:39.342Z,10.70
2019-03-28T20:24:10.252Z,10.70
2019-03-28T20:26:41.657Z,10.70
2019-03-28T20:29:12.565Z,10.70
2019-03-28T20:31:43.690Z,10.70
2019-03-28T20:34:14.639Z,10.70
2019-03-28T20:36:45.663Z,10.60
2019-03-28T20:39:16.578Z,10.60
2019-03-28T20:41:47.534Z,10.70
2019-03-28T20:44:19.010Z,10.60
2019-03-28T20:46:50.123Z,10.60
2019-03-28T20:49:21.049Z,10.60
2019-03-28T20:51:52.101Z,10.60
2019-03-28T20:54:23.708Z,10.60
2019-03-28T20:56:57.767Z,10.60
2019-03-28T20:59:27.169Z,10.60
2019-03-28T21:01:58.142Z,10.50
2019-03-28T21:04:31.728Z,10.50
2019-03-28T21:07:01.717Z,10.60
2019-03-28T21:09:32.653Z,10.60
2019-03-28T21:12:03.631Z,10.60
2019-03-28T21:14:35.614Z,10.60
2019-03-28T21:17:06.654Z,10.60
2019-03-28T21:19:37.696Z,10.50
2019-03-28T21:22:08.702Z,10.60
2019-03-28T21:24:39.602Z,10.60
2019-03-28T21:27:10.534Z,10.60
2019-03-28T21:29:48.755Z,10.60
2019-03-28T21:32:14.707Z,10.50
2019-03-28T21:34:46.858Z,10.60
2019-03-28T21:37:18.178Z,10.60
2019-03-28T21:39:49.098Z,10.60
2019-03-28T21:42:20.041Z,10.50
2019-03-28T21:44:51.321Z,10.60
2019-03-28T21:47:23.358Z,10.60
2019-03-28T21:49:54.267Z,10.50
2019-03-28T21:52:25.204Z,10.60
2019-03-28T21:54:56.622Z,10.60
2019-03-28T21:57:27.561Z,10.60
2019-03-28T21:59:58.478Z,10.60
2019-03-28T22:02:29.517Z,10.50
2019-03-28T22:05:01.285Z,10.50
2019-03-28T22:07:33.644Z,10.50
2019-03-28T22:10:08.348Z,10.50
2019-03-28T22:12:37.667Z,10.50
2019-03-28T22:15:08.973Z,10.60
2019-03-28T22:17:39.951Z,10.50
2019-03-28T22:20:11.038Z,10.50
2019-03-28T22:22:43.527Z,10.50
2019-03-28T22:25:14.689Z,10.50
2019-03-28T22:27:47.401Z,10.50
2019-03-28T22:30:19.582Z,10.50
2019-03-28T22:32:50.542Z,10.60
2019-03-28T22:35:21.461Z,10.60
2019-03-28T22:37:52.425Z,10.50
2019-03-28T22:40:24.405Z,10.50
2019-03-28T22:42:55.718Z,10.60
2019-03-28T22:45:26.725Z,10.50
2019-03-28T22:48:10.081Z,10.60
2019-03-28T22:50:33.415Z,10.60
2019-03-28T22:53:04.381Z,10.60
2019-03-28T22:55:35.290Z,10.50
2019-03-28T22:58:08.063Z,10.50
2019-03-28T23:00:42.606Z,10.50
2019-03-28T23:03:16.773Z,10.60
2019-03-28T23:05:47.688Z,10.50
2019-03-28T23:08:18.640Z,10.60
2019-03-28T23:10:49.535Z,10.50
2019-03-28T23:13:20.491Z,10.50
2019-03-28T23:15:53.021Z,10.60
2019-03-28T23:18:23.984Z,10.60
2019-03-28T23:20:54.961Z,10.60
2019-03-28T23:23:26.226Z,10.60
2019-03-28T23:25:57.214Z,10.60
2019-03-28T23:28:28.238Z,10.50
2019-03-28T23:30:59.205Z,10.50
2019-03-28T23:33:30.293Z,10.50
2019-03-28T23:36:01.829Z,10.60
2019-03-28T23:38:32.862Z,10.50
2019-03-28T23:41:03.786Z,10.50
2019-03-28T23:43:35.845Z,10.50
2019-03-28T23:46:07.038Z,10.50
2019-03-28T23:48:37.978Z,10.50
2019-03-28T23:51:09.222Z,10.50
2019-03-28T23:53:40.178Z,10.50
2019-03-28T23:56:11.078Z,10.60
2019-03-28T23:58:42.006Z,10.60
